Agua Boa, Brazil
Current Conditions -  °F | °C
As of 12:00 PM on Saturday 22 Nov 2014 (Local Time) from SBMK Reporting Station
Scattered Clouds Scattered Clouds  
Wind Chill: 88°   Ceiling: Unl
Heat Index: 90°   Visibility: 6mi
Dew Point: 66°   Wind: 8mph
Humidity: 49%   Direction: 30°NNE
Pressure: 30"   Gusts: NA
Location:  18°S, 42.39°W
Report Text: SBMK 221400Z 03007KT 320V090 9999 SCT040 31/19 Q1016
Loading
Personal Weather Stations






























Interactive Weather Map New forecast layout! Learn more

10-Day Weather Forecast

Advertisements
Track Severe Weather on mobile